sensor_id;sensor_type;location;lat;lon;timestamp;temperature;humidity
84067;SHT35;74151;52.134;5.500;2024-03-22T00:00:05;10.54;88.22
84067;SHT35;74151;52.134;5.500;2024-03-22T00:02:41;10.55;88.29
84067;SHT35;74151;52.134;5.500;2024-03-22T00:05:13;10.57;88.49
84067;SHT35;74151;52.134;5.500;2024-03-22T00:07:46;10.58;88.54
84067;SHT35;74151;52.134;5.500;2024-03-22T00:10:16;10.61;88.44
84067;SHT35;74151;52.134;5.500;2024-03-22T00:12:54;10.62;88.59
84067;SHT35;74151;52.134;5.500;2024-03-22T00:15:32;10.64;88.63
84067;SHT35;74151;52.134;5.500;2024-03-22T00:18:04;10.65;88.80
84067;SHT35;74151;52.134;5.500;2024-03-22T00:20:36;10.67;88.62
84067;SHT35;74151;52.134;5.500;2024-03-22T00:23:11;10.69;88.55
84067;SHT35;74151;52.134;5.500;2024-03-22T00:25:41;10.69;88.57
84067;SHT35;74151;52.134;5.500;2024-03-22T00:28:16;10.69;88.56
84067;SHT35;74151;52.134;5.500;2024-03-22T00:30:49;10.68;88.62
84067;SHT35;74151;52.134;5.500;2024-03-22T00:33:21;10.69;88.62
84067;SHT35;74151;52.134;5.500;2024-03-22T00:35:51;10.68;88.79
84067;SHT35;74151;52.134;5.500;2024-03-22T00:38:24;10.68;88.93
84067;SHT35;74151;52.134;5.500;2024-03-22T00:40:54;10.68;89.10
84067;SHT35;74151;52.134;5.500;2024-03-22T00:43:27;10.67;89.13
84067;SHT35;74151;52.134;5.500;2024-03-22T00:45:59;10.65;89.28
84067;SHT35;74151;52.134;5.500;2024-03-22T00:48:32;10.64;89.39
84067;SHT35;74151;52.134;5.500;2024-03-22T00:51:08;10.63;89.49
84067;SHT35;74151;52.134;5.500;2024-03-22T00:53:38;10.63;89.67
84067;SHT35;74151;52.134;5.500;2024-03-22T00:56:08;10.63;89.62
84067;SHT35;74151;52.134;5.500;2024-03-22T00:58:40;10.62;89.84
84067;SHT35;74151;52.134;5.500;2024-03-22T01:01:14;10.60;90.09
84067;SHT35;74151;52.134;5.500;2024-03-22T01:03:47;10.59;90.27
84067;SHT35;74151;52.134;5.500;2024-03-22T01:06:17;10.58;90.46
84067;SHT35;74151;52.134;5.500;2024-03-22T01:08:54;10.58;90.41
84067;SHT35;74151;52.134;5.500;2024-03-22T01:11:29;10.58;90.58
84067;SHT35;74151;52.134;5.500;2024-03-22T01:13:59;10.59;90.61
84067;SHT35;74151;52.134;5.500;2024-03-22T01:16:29;10.59;90.60
84067;SHT35;74151;52.134;5.500;2024-03-22T01:19:04;10.60;90.50
84067;SHT35;74151;52.134;5.500;2024-03-22T01:21:39;10.60;90.54
84067;SHT35;74151;52.134;5.500;2024-03-22T01:24:14;10.61;90.52
84067;SHT35;74151;52.134;5.500;2024-03-22T01:26:46;10.63;90.45
84067;SHT35;74151;52.134;5.500;2024-03-22T01:29:23;10.64;90.43
84067;SHT35;74151;52.134;5.500;2024-03-22T01:31:55;10.65;90.32
84067;SHT35;74151;52.134;5.500;2024-03-22T01:34:27;10.65;90.40
84067;SHT35;74151;52.134;5.500;2024-03-22T01:36:58;10.65;90.31
84067;SHT35;74151;52.134;5.500;2024-03-22T01:39:31;10.65;90.37
84067;SHT35;74151;52.134;5.500;2024-03-22T01:42:03;10.65;90.47
84067;SHT35;74151;52.134;5.500;2024-03-22T01:44:33;10.66;90.53
84067;SHT35;74151;52.134;5.500;2024-03-22T01:47:03;10.67;90.61
84067;SHT35;74151;52.134;5.500;2024-03-22T01:49:36;10.68;90.78
84067;SHT35;74151;52.134;5.500;2024-03-22T01:52:10;10.69;90.89
84067;SHT35;74151;52.134;5.500;2024-03-22T01:54:47;10.70;90.90
84067;SHT35;74151;52.134;5.500;2024-03-22T01:57:19;10.69;91.03
84067;SHT35;74151;52.134;5.500;2024-03-22T01:59:54;10.70;90.94
84067;SHT35;74151;52.134;5.500;2024-03-22T02:02:29;10.71;90.97
84067;SHT35;74151;52.134;5.500;2024-03-22T02:04:59;10.72;90.79
84067;SHT35;74151;52.134;5.500;2024-03-22T02:07:31;10.73;90.66
84067;SHT35;74151;52.134;5.500;2024-03-22T02:10:03;10.72;90.70
84067;SHT35;74151;52.134;5.500;2024-03-22T02:12:41;10.73;90.63
84067;SHT35;74151;52.134;5.500;2024-03-22T02:15:13;10.73;90.74
84067;SHT35;74151;52.134;5.500;2024-03-22T02:17:46;10.75;90.73
84067;SHT35;74151;52.134;5.500;2024-03-22T02:20:21;10.75;90.80
84067;SHT35;74151;52.134;5.500;2024-03-22T02:22:58;10.78;90.57
84067;SHT35;74151;52.134;5.500;2024-03-22T02:25:30;10.78;90.68
84067;SHT35;74151;52.134;5.500;2024-03-22T02:28:05;10.79;90.67
84067;SHT35;74151;52.134;5.500;2024-03-22T02:41:11;10.81;90.42
84067;SHT35;74151;52.134;5.500;2024-03-22T02:43:49;10.81;90.46
84067;SHT35;74151;52.134;5.500;2024-03-22T02:46:19;10.82;90.20
84067;SHT35;74151;52.134;5.500;2024-03-22T02:48:49;10.82;89.90
84067;SHT35;74151;52.134;5.500;2024-03-22T02:51:23;10.82;89.69
84067;SHT35;74151;52.134;5.500;2024-03-22T02:53:55;10.80;89.88
84067;SHT35;74151;52.134;5.500;2024-03-22T02:56:28;10.79;89.55
84067;SHT35;74151;52.134;5.500;2024-03-22T02:59:00;10.76;89.40
84067;SHT35;74151;52.134;5.500;2024-03-22T03:01:32;10.73;89.39
84067;SHT35;74151;52.134;5.500;2024-03-22T03:04:02;10.71;89.33
84067;SHT35;74151;52.134;5.500;2024-03-22T03:06:35;10.68;89.24
84067;SHT35;74151;52.134;5.500;2024-03-22T03:09:07;10.65;89.03
84067;SHT35;74151;52.134;5.500;2024-03-22T03:11:42;10.61;89.08
84067;SHT35;74151;52.134;5.500;2024-03-22T03:14:19;10.58;89.35
84067;SHT35;74151;52.134;5.500;2024-03-22T03:16:51;10.57;89.53
84067;SHT35;74151;52.134;5.500;2024-03-22T03:19:24;10.56;89.06
84067;SHT35;74151;52.134;5.500;2024-03-22T03:21:56;10.53;89.02
84067;SHT35;74151;52.134;5.500;2024-03-22T03:24:28;10.49;88.80
84067;SHT35;74151;52.134;5.500;2024-03-22T03:26:58;10.47;88.65
84067;SHT35;74151;52.134;5.500;2024-03-22T03:29:31;10.43;88.69
84067;SHT35;74151;52.134;5.500;2024-03-22T03:32:06;10.36;88.68
84067;SHT35;74151;52.134;5.500;2024-03-22T03:34:39;10.31;89.10
84067;SHT35;74151;52.134;5.500;2024-03-22T03:37:09;10.27;89.03
84067;SHT35;74151;52.134;5.500;2024-03-22T03:39:41;10.23;89.23
84067;SHT35;74151;52.134;5.500;2024-03-22T03:42:11;10.20;89.48
84067;SHT35;74151;52.134;5.500;2024-03-22T03:44:43;10.19;89.62
84067;SHT35;74151;52.134;5.500;2024-03-22T03:47:13;10.16;89.63
84067;SHT35;74151;52.134;5.500;2024-03-22T03:49:48;10.14;89.61
84067;SHT35;74151;52.134;5.500;2024-03-22T03:52:22;10.11;89.68
84067;SHT35;74151;52.134;5.500;2024-03-22T03:54:54;10.10;89.74
84067;SHT35;74151;52.134;5.500;2024-03-22T03:57:29;10.10;89.79
84067;SHT35;74151;52.134;5.500;2024-03-22T04:00:02;10.10;89.99
84067;SHT35;74151;52.134;5.500;2024-03-22T04:02:32;10.10;89.93
84067;SHT35;74151;52.134;5.500;2024-03-22T04:05:05;10.10;89.85
84067;SHT35;74151;52.134;5.500;2024-03-22T04:07:37;10.10;89.28
84067;SHT35;74151;52.134;5.500;2024-03-22T04:10:07;10.07;89.18
84067;SHT35;74151;52.134;5.500;2024-03-22T04:12:42;10.04;89.06
84067;SHT35;74151;52.134;5.500;2024-03-22T04:15:12;10.02;88.89
84067;SHT35;74151;52.134;5.500;2024-03-22T04:17:42;9.98;89.07
84067;SHT35;74151;52.134;5.500;2024-03-22T04:20:19;9.95;89.18
84067;SHT35;74151;52.134;5.500;2024-03-22T04:22:54;9.93;89.29
84067;SHT35;74151;52.134;5.500;2024-03-22T04:25:26;9.93;89.16
84067;SHT35;74151;52.134;5.500;2024-03-22T04:28:01;9.91;89.32
84067;SHT35;74151;52.134;5.500;2024-03-22T04:30:31;9.89;89.40
84067;SHT35;74151;52.134;5.500;2024-03-22T04:33:05;9.88;89.41
84067;SHT35;74151;52.134;5.500;2024-03-22T04:35:45;9.87;89.22
84067;SHT35;74151;52.134;5.500;2024-03-22T04:38:15;9.84;89.34
84067;SHT35;74151;52.134;5.500;2024-03-22T04:40:49;9.83;89.69
84067;SHT35;74151;52.134;5.500;2024-03-22T04:43:24;9.81;89.45
84067;SHT35;74151;52.134;5.500;2024-03-22T04:45:57;9.81;89.52
84067;SHT35;74151;52.134;5.500;2024-03-22T04:48:27;9.79;89.47
84067;SHT35;74151;52.134;5.500;2024-03-22T04:50:57;9.81;89.16
84067;SHT35;74151;52.134;5.500;2024-03-22T04:53:29;9.80;89.14
84067;SHT35;74151;52.134;5.500;2024-03-22T04:56:07;9.79;89.11
84067;SHT35;74151;52.134;5.500;2024-03-22T04:58:39;9.79;89.18
84067;SHT35;74151;52.134;5.500;2024-03-22T05:01:11;9.78;88.95
84067;SHT35;74151;52.134;5.500;2024-03-22T05:03:46;9.79;88.91
84067;SHT35;74151;52.134;5.500;2024-03-22T05:06:18;9.80;88.91
84067;SHT35;74151;52.134;5.500;2024-03-22T05:08:48;9.79;88.81
84067;SHT35;74151;52.134;5.500;2024-03-22T05:11:20;9.79;88.85
84067;SHT35;74151;52.134;5.500;2024-03-22T05:13:55;9.77;89.11
84067;SHT35;74151;52.134;5.500;2024-03-22T05:16:28;9.78;89.20
84067;SHT35;74151;52.134;5.500;2024-03-22T05:18:58;9.79;89.26
84067;SHT35;74151;52.134;5.500;2024-03-22T05:21:31;9.79;89.40
84067;SHT35;74151;52.134;5.500;2024-03-22T05:24:03;9.80;89.27
84067;SHT35;74151;52.134;5.500;2024-03-22T05:26:36;9.82;89.19
84067;SHT35;74151;52.134;5.500;2024-03-22T05:29:08;9.81;88.78
84067;SHT35;74151;52.134;5.500;2024-03-22T05:31:49;9.82;88.66
84067;SHT35;74151;52.134;5.500;2024-03-22T05:34:19;9.82;88.17
84067;SHT35;74151;52.134;5.500;2024-03-22T05:36:57;9.81;88.35
84067;SHT35;74151;52.134;5.500;2024-03-22T05:39:29;9.81;88.33
84067;SHT35;74151;52.134;5.500;2024-03-22T05:42:04;9.81;88.46
84067;SHT35;74151;52.134;5.500;2024-03-22T05:44:36;9.82;88.15
84067;SHT35;74151;52.134;5.500;2024-03-22T05:47:08;9.82;88.17
84067;SHT35;74151;52.134;5.500;2024-03-22T05:49:40;9.83;88.20
84067;SHT35;74151;52.134;5.500;2024-03-22T05:52:10;9.82;88.09
84067;SHT35;74151;52.134;5.500;2024-03-22T05:54:43;9.81;87.90
84067;SHT35;74151;52.134;5.500;2024-03-22T05:57:16;9.80;87.98
84067;SHT35;74151;52.134;5.500;2024-03-22T05:59:48;9.78;87.83
84067;SHT35;74151;52.134;5.500;2024-03-22T06:02:20;9.77;87.84
84067;SHT35;74151;52.134;5.500;2024-03-22T06:04:53;9.76;88.18
84067;SHT35;74151;52.134;5.500;2024-03-22T06:07:28;9.74;88.17
84067;SHT35;74151;52.134;5.500;2024-03-22T06:10:12;9.74;88.23
84067;SHT35;74151;52.134;5.500;2024-03-22T06:12:43;9.74;88.27
84067;SHT35;74151;52.134;5.500;2024-03-22T06:15:14;9.73;88.26
84067;SHT35;74151;52.134;5.500;2024-03-22T06:17:51;9.77;88.23
84067;SHT35;74151;52.134;5.500;2024-03-22T06:20:24;9.81;87.91
84067;SHT35;74151;52.134;5.500;2024-03-22T06:22:54;9.84;87.75
84067;SHT35;74151;52.134;5.500;2024-03-22T06:25:26;9.86;87.74
84067;SHT35;74151;52.134;5.500;2024-03-22T06:27:58;9.89;87.51
84067;SHT35;74151;52.134;5.500;2024-03-22T06:30:31;9.91;87.53
84067;SHT35;74151;52.134;5.500;2024-03-22T06:33:03;9.93;87.26
84067;SHT35;74151;52.134;5.500;2024-03-22T06:35:33;9.94;87.47
84067;SHT35;74151;52.134;5.500;2024-03-22T06:38:05;9.95;87.36
84067;SHT35;74151;52.134;5.500;2024-03-22T06:40:40;9.97;87.11
84067;SHT35;74151;52.134;5.500;2024-03-22T06:43:15;9.98;87.10
84067;SHT35;74151;52.134;5.500;2024-03-22T06:45:47;10.01;86.91
84067;SHT35;74151;52.134;5.500;2024-03-22T06:48:20;10.03;86.94
84067;SHT35;74151;52.134;5.500;2024-03-22T06:50:54;10.06;86.51
84067;SHT35;74151;52.134;5.500;2024-03-22T06:53:27;10.10;86.62
84067;SHT35;74151;52.134;5.500;2024-03-22T06:55:59;10.12;86.62
84067;SHT35;74151;52.134;5.500;2024-03-22T06:58:36;10.16;86.29
84067;SHT35;74151;52.134;5.500;2024-03-22T07:01:13;10.18;85.64
84067;SHT35;74151;52.134;5.500;2024-03-22T07:03:46;10.19;85.89
84067;SHT35;74151;52.134;5.500;2024-03-22T07:06:20;10.20;85.85
84067;SHT35;74151;52.134;5.500;2024-03-22T07:08:52;10.25;85.74
84067;SHT35;74151;52.134;5.500;2024-03-22T07:11:29;10.29;85.57
84067;SHT35;74151;52.134;5.500;2024-03-22T07:14:00;10.33;85.72
84067;SHT35;74151;52.134;5.500;2024-03-22T07:16:30;10.37;85.58
84067;SHT35;74151;52.134;5.500;2024-03-22T07:19:09;10.40;85.23
84067;SHT35;74151;52.134;5.500;2024-03-22T07:21:45;10.42;84.85
84067;SHT35;74151;52.134;5.500;2024-03-22T07:24:18;10.43;84.93
84067;SHT35;74151;52.134;5.500;2024-03-22T07:26:56;10.44;85.11
84067;SHT35;74151;52.134;5.500;2024-03-22T07:29:33;10.44;84.80
84067;SHT35;74151;52.134;5.500;2024-03-22T07:32:06;10.43;84.61
84067;SHT35;74151;52.134;5.500;2024-03-22T07:34:38;10.43;84.83
84067;SHT35;74151;52.134;5.500;2024-03-22T07:37:15;10.45;84.82
84067;SHT35;74151;52.134;5.500;2024-03-22T07:39:48;10.47;84.66
84067;SHT35;74151;52.134;5.500;2024-03-22T07:42:18;10.48;84.39
84067;SHT35;74151;52.134;5.500;2024-03-22T07:44:49;10.50;84.19
84067;SHT35;74151;52.134;5.500;2024-03-22T07:47:21;10.48;83.85
84067;SHT35;74151;52.134;5.500;2024-03-22T07:49:53;10.46;83.82
84067;SHT35;74151;52.134;5.500;2024-03-22T07:52:24;10.43;83.75
84067;SHT35;74151;52.134;5.500;2024-03-22T07:54:54;10.39;84.25
84067;SHT35;74151;52.134;5.500;2024-03-22T07:57:29;10.38;84.57
84067;SHT35;74151;52.134;5.500;2024-03-22T08:00:01;10.34;84.62
84067;SHT35;74151;52.134;5.500;2024-03-22T08:02:41;10.34;84.87
84067;SHT35;74151;52.134;5.500;2024-03-22T08:05:13;10.33;84.26
84067;SHT35;74151;52.134;5.500;2024-03-22T08:07:45;10.31;84.84
84067;SHT35;74151;52.134;5.500;2024-03-22T08:10:19;10.31;84.58
84067;SHT35;74151;52.134;5.500;2024-03-22T08:12:53;10.29;85.00
84067;SHT35;74151;52.134;5.500;2024-03-22T08:15:25;10.29;84.98
84067;SHT35;74151;52.134;5.500;2024-03-22T08:17:58;10.28;85.20
84067;SHT35;74151;52.134;5.500;2024-03-22T08:20:28;10.28;85.23
84067;SHT35;74151;52.134;5.500;2024-03-22T08:23:05;10.30;85.42
84067;SHT35;74151;52.134;5.500;2024-03-22T08:25:40;10.29;85.38
84067;SHT35;74151;52.134;5.500;2024-03-22T08:28:11;10.27;86.05
84067;SHT35;74151;52.134;5.500;2024-03-22T08:30:44;10.26;86.51
84067;SHT35;74151;52.134;5.500;2024-03-22T08:33:14;10.24;87.15
84067;SHT35;74151;52.134;5.500;2024-03-22T08:35:50;10.23;87.69
84067;SHT35;74151;52.134;5.500;2024-03-22T08:38:27;10.22;87.66
84067;SHT35;74151;52.134;5.500;2024-03-22T08:40:58;10.22;88.15
84067;SHT35;74151;52.134;5.500;2024-03-22T08:43:30;10.22;88.36
84067;SHT35;74151;52.134;5.500;2024-03-22T08:46:02;10.24;88.97
84067;SHT35;74151;52.134;5.500;2024-03-22T08:48:39;10.24;88.73
84067;SHT35;74151;52.134;5.500;2024-03-22T08:51:09;10.22;88.77
84067;SHT35;74151;52.134;5.500;2024-03-22T08:53:42;10.21;89.11
84067;SHT35;74151;52.134;5.500;2024-03-22T08:56:14;10.21;89.41
84067;SHT35;74151;52.134;5.500;2024-03-22T08:58:46;10.22;89.57
84067;SHT35;74151;52.134;5.500;2024-03-22T09:01:19;10.24;89.82
84067;SHT35;74151;52.134;5.500;2024-03-22T09:03:52;10.25;89.92
84067;SHT35;74151;52.134;5.500;2024-03-22T09:06:22;10.28;89.96
84067;SHT35;74151;52.134;5.500;2024-03-22T09:08:54;10.29;89.41
84067;SHT35;74151;52.134;5.500;2024-03-22T09:11:29;10.31;89.87
84067;SHT35;74151;52.134;5.500;2024-03-22T09:14:02;10.31;89.72
84067;SHT35;74151;52.134;5.500;2024-03-22T09:16:32;10.30;89.90
84067;SHT35;74151;52.134;5.500;2024-03-22T09:19:07;10.29;90.07
84067;SHT35;74151;52.134;5.500;2024-03-22T09:21:41;10.28;90.48
84067;SHT35;74151;52.134;5.500;2024-03-22T09:24:12;10.24;90.50
84067;SHT35;74151;52.134;5.500;2024-03-22T09:26:44;10.21;91.00
84067;SHT35;74151;52.134;5.500;2024-03-22T09:29:14;10.21;91.52
84067;SHT35;74151;52.134;5.500;2024-03-22T09:31:46;10.21;91.35
84067;SHT35;74151;52.134;5.500;2024-03-22T09:34:20;10.25;91.59
84067;SHT35;74151;52.134;5.500;2024-03-22T09:36:57;10.25;91.76
84067;SHT35;74151;52.134;5.500;2024-03-22T09:39:32;10.30;92.24
84067;SHT35;74151;52.134;5.500;2024-03-22T09:42:06;10.35;91.83
84067;SHT35;74151;52.134;5.500;2024-03-22T09:44:37;10.39;91.90
84067;SHT35;74151;52.134;5.500;2024-03-22T09:47:10;10.44;92.01
84067;SHT35;74151;52.134;5.500;2024-03-22T09:49:46;10.46;91.74
84067;SHT35;74151;52.134;5.500;2024-03-22T09:52:23;10.47;91.24
84067;SHT35;74151;52.134;5.500;2024-03-22T09:54:57;10.49;92.04
84067;SHT35;74151;52.134;5.500;2024-03-22T09:57:29;10.50;91.84
84067;SHT35;74151;52.134;5.500;2024-03-22T10:00:02;10.52;91.82
84067;SHT35;74151;52.134;5.500;2024-03-22T10:02:42;10.53;91.27
84067;SHT35;74151;52.134;5.500;2024-03-22T10:05:13;10.54;91.08
84067;SHT35;74151;52.134;5.500;2024-03-22T10:07:50;10.53;91.25
84067;SHT35;74151;52.134;5.500;2024-03-22T10:10:21;10.53;90.81
84067;SHT35;74151;52.134;5.500;2024-03-22T10:12:53;10.52;91.07
84067;SHT35;74151;52.134;5.500;2024-03-22T10:15:28;10.50;91.30
84067;SHT35;74151;52.134;5.500;2024-03-22T10:18:04;10.50;91.28
84067;SHT35;74151;52.134;5.500;2024-03-22T10:20:37;10.50;91.79
84067;SHT35;74151;52.134;5.500;2024-03-22T10:23:10;10.53;91.98
84067;SHT35;74151;52.134;5.500;2024-03-22T10:25:44;10.57;91.89
84067;SHT35;74151;52.134;5.500;2024-03-22T10:28:14;10.58;91.95
84067;SHT35;74151;52.134;5.500;2024-03-22T10:30:45;10.60;91.58
84067;SHT35;74151;52.134;5.500;2024-03-22T10:33:21;10.61;91.28
84067;SHT35;74151;52.134;5.500;2024-03-22T10:35:53;10.62;91.45
84067;SHT35;74151;52.134;5.500;2024-03-22T10:38:24;10.62;91.03
84067;SHT35;74151;52.134;5.500;2024-03-22T10:40:57;10.62;91.60
84067;SHT35;74151;52.134;5.500;2024-03-22T10:43:32;10.65;91.11
84067;SHT35;74151;52.134;5.500;2024-03-22T10:46:08;10.65;91.78
84067;SHT35;74151;52.134;5.500;2024-03-22T10:48:41;10.67;91.51
84067;SHT35;74151;52.134;5.500;2024-03-22T10:51:16;10.69;91.49
84067;SHT35;74151;52.134;5.500;2024-03-22T10:53:48;10.69;90.98
84067;SHT35;74151;52.134;5.500;2024-03-22T10:56:23;10.67;91.00
84067;SHT35;74151;52.134;5.500;2024-03-22T10:58:56;10.67;91.44
84067;SHT35;74151;52.134;5.500;2024-03-22T11:01:31;10.67;90.75
84067;SHT35;74151;52.134;5.500;2024-03-22T11:04:05;10.63;90.90
84067;SHT35;74151;52.134;5.500;2024-03-22T11:06:39;10.63;91.55
84067;SHT35;74151;52.134;5.500;2024-03-22T11:09:20;10.60;91.88
84067;SHT35;74151;52.134;5.500;2024-03-22T11:11:55;10.60;92.48
84067;SHT35;74151;52.134;5.500;2024-03-22T11:14:32;10.63;92.06
84067;SHT35;74151;52.134;5.500;2024-03-22T11:17:02;10.67;91.83
84067;SHT35;74151;52.134;5.500;2024-03-22T11:19:37;10.71;92.22
84067;SHT35;74151;52.134;5.500;2024-03-22T11:22:10;10.75;92.31
84067;SHT35;74151;52.134;5.500;2024-03-22T11:24:42;10.78;92.34
84067;SHT35;74151;52.134;5.500;2024-03-22T11:27:14;10.83;92.50
84067;SHT35;74151;52.134;5.500;2024-03-22T11:29:45;10.87;91.99
84067;SHT35;74151;52.134;5.500;2024-03-22T11:32:28;10.93;92.54
84067;SHT35;74151;52.134;5.500;2024-03-22T11:35:06;11.04;93.38
84067;SHT35;74151;52.134;5.500;2024-03-22T11:37:42;11.19;92.46
84067;SHT35;74151;52.134;5.500;2024-03-22T11:40:14;11.31;91.86
84067;SHT35;74151;52.134;5.500;2024-03-22T11:42:49;11.43;91.39
84067;SHT35;74151;52.134;5.500;2024-03-22T11:45:20;11.49;90.46
84067;SHT35;74151;52.134;5.500;2024-03-22T11:47:56;11.53;89.41
84067;SHT35;74151;52.134;5.500;2024-03-22T11:50:26;11.57;90.00
84067;SHT35;74151;52.134;5.500;2024-03-22T11:52:56;11.63;89.80
84067;SHT35;74151;52.134;5.500;2024-03-22T11:55:30;11.71;89.85
84067;SHT35;74151;52.134;5.500;2024-03-22T11:58:03;11.78;89.40
84067;SHT35;74151;52.134;5.500;2024-03-22T12:00:38;11.81;88.82
84067;SHT35;74151;52.134;5.500;2024-03-22T12:03:13;11.84;88.29
84067;SHT35;74151;52.134;5.500;2024-03-22T12:05:43;11.81;86.96
84067;SHT35;74151;52.134;5.500;2024-03-22T12:08:18;11.76;87.11
84067;SHT35;74151;52.134;5.500;2024-03-22T12:10:50;11.68;87.31
84067;SHT35;74151;52.134;5.500;2024-03-22T12:13:20;11.64;87.87
84067;SHT35;74151;52.134;5.500;2024-03-22T12:15:50;11.57;88.11
84067;SHT35;74151;52.134;5.500;2024-03-22T12:18:20;11.50;88.14
84067;SHT35;74151;52.134;5.500;2024-03-22T12:20:55;11.45;88.41
84067;SHT35;74151;52.134;5.500;2024-03-22T12:23:27;11.40;88.38
84067;SHT35;74151;52.134;5.500;2024-03-22T12:26:01;11.36;88.77
84067;SHT35;74151;52.134;5.500;2024-03-22T12:28:36;11.33;89.36
84067;SHT35;74151;52.134;5.500;2024-03-22T12:31:09;11.31;89.55
84067;SHT35;74151;52.134;5.500;2024-03-22T12:33:42;11.32;89.45
84067;SHT35;74151;52.134;5.500;2024-03-22T12:36:16;11.29;89.25
84067;SHT35;74151;52.134;5.500;2024-03-22T12:38:48;11.28;89.83
84067;SHT35;74151;52.134;5.500;2024-03-22T12:41:23;11.29;90.13
84067;SHT35;74151;52.134;5.500;2024-03-22T12:43:53;11.31;89.52
84067;SHT35;74151;52.134;5.500;2024-03-22T12:46:23;11.32;89.39
84067;SHT35;74151;52.134;5.500;2024-03-22T12:48:53;11.33;88.20
84067;SHT35;74151;52.134;5.500;2024-03-22T12:51:23;11.32;88.49
84067;SHT35;74151;52.134;5.500;2024-03-22T12:53:53;11.31;88.55
84067;SHT35;74151;52.134;5.500;2024-03-22T12:56:28;11.29;88.18
84067;SHT35;74151;52.134;5.500;2024-03-22T12:59:03;11.28;88.11
84067;SHT35;74151;52.134;5.500;2024-03-22T13:01:35;11.27;88.10
84067;SHT35;74151;52.134;5.500;2024-03-22T13:04:08;11.27;88.42
84067;SHT35;74151;52.134;5.500;2024-03-22T13:06:42;11.29;88.57
84067;SHT35;74151;52.134;5.500;2024-03-22T13:09:15;11.30;88.81
84067;SHT35;74151;52.134;5.500;2024-03-22T13:11:52;11.32;88.69
84067;SHT35;74151;52.134;5.500;2024-03-22T13:14:24;11.34;88.44
84067;SHT35;74151;52.134;5.500;2024-03-22T13:16:57;11.35;88.09
84067;SHT35;74151;52.134;5.500;2024-03-22T13:19:30;11.37;88.63
84067;SHT35;74151;52.134;5.500;2024-03-22T13:22:05;11.37;87.81
84067;SHT35;74151;52.134;5.500;2024-03-22T13:24:35;11.35;88.08
84067;SHT35;74151;52.134;5.500;2024-03-22T13:27:10;11.31;87.38
84067;SHT35;74151;52.134;5.500;2024-03-22T13:29:45;11.23;87.33
84067;SHT35;74151;52.134;5.500;2024-03-22T13:32:15;11.18;87.23
84067;SHT35;74151;52.134;5.500;2024-03-22T13:34:48;11.10;87.33
84067;SHT35;74151;52.134;5.500;2024-03-22T13:37:18;11.08;88.25
84067;SHT35;74151;52.134;5.500;2024-03-22T13:39:51;11.08;88.42
84067;SHT35;74151;52.134;5.500;2024-03-22T13:42:24;11.09;88.86
84067;SHT35;74151;52.134;5.500;2024-03-22T13:44:57;11.11;89.71
84067;SHT35;74151;52.134;5.500;2024-03-22T13:47:29;11.15;89.65
84067;SHT35;74151;52.134;5.500;2024-03-22T13:50:01;11.18;89.40
84067;SHT35;74151;52.134;5.500;2024-03-22T13:52:33;11.21;89.05
84067;SHT35;74151;52.134;5.500;2024-03-22T13:55:09;11.22;88.42
84067;SHT35;74151;52.134;5.500;2024-03-22T13:57:44;11.22;88.65
84067;SHT35;74151;52.134;5.500;2024-03-22T14:00:19;11.24;88.69
84067;SHT35;74151;52.134;5.500;2024-03-22T14:02:51;11.29;88.73
84067;SHT35;74151;52.134;5.500;2024-03-22T14:05:26;11.32;88.00
84067;SHT35;74151;52.134;5.500;2024-03-22T14:08:04;11.35;87.79
84067;SHT35;74151;52.134;5.500;2024-03-22T14:10:37;11.32;87.10
84067;SHT35;74151;52.134;5.500;2024-03-22T14:13:12;11.29;86.93
84067;SHT35;74151;52.134;5.500;2024-03-22T14:15:47;11.25;87.34
84067;SHT35;74151;52.134;5.500;2024-03-22T14:18:17;11.22;87.74
84067;SHT35;74151;52.134;5.500;2024-03-22T14:20:47;11.20;87.51
84067;SHT35;74151;52.134;5.500;2024-03-22T14:23:19;11.12;87.12
84067;SHT35;74151;52.134;5.500;2024-03-22T14:25:58;11.07;87.58
84067;SHT35;74151;52.134;5.500;2024-03-22T14:28:36;11.05;88.51
84067;SHT35;74151;52.134;5.500;2024-03-22T14:31:09;11.04;88.63
84067;SHT35;74151;52.134;5.500;2024-03-22T14:33:43;11.04;88.70
84067;SHT35;74151;52.134;5.500;2024-03-22T14:36:15;11.06;89.40
84067;SHT35;74151;52.134;5.500;2024-03-22T14:38:47;11.08;89.21
84067;SHT35;74151;52.134;5.500;2024-03-22T14:41:19;11.09;89.24
84067;SHT35;74151;52.134;5.500;2024-03-22T14:43:50;11.09;89.35
84067;SHT35;74151;52.134;5.500;2024-03-22T14:46:25;11.10;89.42
84067;SHT35;74151;52.134;5.500;2024-03-22T14:49:01;11.10;88.97
84067;SHT35;74151;52.134;5.500;2024-03-22T14:51:38;11.11;89.39
84067;SHT35;74151;52.134;5.500;2024-03-22T14:54:13;11.12;89.43
84067;SHT35;74151;52.134;5.500;2024-03-22T14:56:45;11.15;89.12
84067;SHT35;74151;52.134;5.500;2024-03-22T14:59:17;11.17;88.86
84067;SHT35;74151;52.134;5.500;2024-03-22T15:01:52;11.21;88.60
84067;SHT35;74151;52.134;5.500;2024-03-22T15:04:29;11.21;87.67
84067;SHT35;74151;52.134;5.500;2024-03-22T15:06:59;11.21;86.52
84067;SHT35;74151;52.134;5.500;2024-03-22T15:09:31;11.18;86.65
84067;SHT35;74151;52.134;5.500;2024-03-22T15:12:03;11.15;86.74
84067;SHT35;74151;52.134;5.500;2024-03-22T15:14:35;11.15;86.53
84067;SHT35;74151;52.134;5.500;2024-03-22T15:17:11;11.12;86.19
84067;SHT35;74151;52.134;5.500;2024-03-22T15:19:46;11.11;86.86
84067;SHT35;74151;52.134;5.500;2024-03-22T15:22:19;11.09;86.86
84067;SHT35;74151;52.134;5.500;2024-03-22T15:24:52;11.07;86.20
84067;SHT35;74151;52.134;5.500;2024-03-22T15:27:28;11.07;86.65
84067;SHT35;74151;52.134;5.500;2024-03-22T15:30:00;11.07;86.60
84067;SHT35;74151;52.134;5.500;2024-03-22T15:32:38;11.06;86.46
84067;SHT35;74151;52.134;5.500;2024-03-22T15:35:14;11.02;84.62
84067;SHT35;74151;52.134;5.500;2024-03-22T15:37:45;10.96;84.61
84067;SHT35;74151;52.134;5.500;2024-03-22T15:40:18;10.91;85.33
84067;SHT35;74151;52.134;5.500;2024-03-22T15:42:48;10.85;84.22
84067;SHT35;74151;52.134;5.500;2024-03-22T15:45:18;10.78;85.65
84067;SHT35;74151;52.134;5.500;2024-03-22T15:47:50;10.75;85.23
84067;SHT35;74151;52.134;5.500;2024-03-22T15:50:28;10.72;85.02
84067;SHT35;74151;52.134;5.500;2024-03-22T15:52:58;10.64;84.69
84067;SHT35;74151;52.134;5.500;2024-03-22T15:55:30;10.60;85.81
84067;SHT35;74151;52.134;5.500;2024-03-22T15:58:07;10.57;85.05
84067;SHT35;74151;52.134;5.500;2024-03-22T16:00:37;10.55;86.16
84067;SHT35;74151;52.134;5.500;2024-03-22T16:03:09;10.52;84.86
84067;SHT35;74151;52.134;5.500;2024-03-22T16:05:51;10.48;84.69
84067;SHT35;74151;52.134;5.500;2024-03-22T16:08:23;10.42;85.23
84067;SHT35;74151;52.134;5.500;2024-03-22T16:10:58;10.37;85.29
84067;SHT35;74151;52.134;5.500;2024-03-22T16:13:32;10.34;84.61
84067;SHT35;74151;52.134;5.500;2024-03-22T16:16:02;10.32;85.66
84067;SHT35;74151;52.134;5.500;2024-03-22T16:18:35;10.29;84.63